Enter the Airport ICAO Code

Search by Airport or City

Current Weather

LETO | Madrid–Torrejón Airport

Madrid, Community of Madrid, Spain

Last Update 18 Minutes Ago

Sky with Few Clouds

Temperature of 27 ºC

Moderate Winds from SouthWest

Temperature

27 ºC

Dew Point Temperature

14 ºC

Relative Humidity

45.04 %

Wind Direction

SouthWest (230º, Ranging from 190º to 260º)

Wind Velocity

22 km/h (12 kt)

Gusts

None

Visibility

Greater than 10 Kilometers

Sea Level Pressure

1015 hPa (Hectopascals)

Layers of Clouds

5% to 30% of Sky Covered from 1676 mts (5500 ft) Above Ground Level.

METAR LETO 121500Z 23012KT 190V260 9999 FEW055 27/14 Q1015 NOSIG

Weather Forecast

LETO | Madrid–Torrejón Airport

Madrid, Community of Madrid, Spain

Forecast valid for the next 21 Hours

From now on it is expected:

Clear Sky

Light to Moderate Winds from Variable Directions

From now on it is expected 3 hours with intermittent periods of:

Sky with Few Clouds

Maximum Temperature

29 ºC in 21 Hours

Minimum Temperature

14 ºC in 15 Hours

TAF LETO 121100Z 1212/1312 VRB05KT CAVOK TX29/1312Z TN14/1306Z TEMPO 1212/1218 22010KT PROB30 TEMPO 1212/1218 FEW030TCU